ADDS METAR Data INFO
IDs: Format: Raw Decoded Include TAF

Data at: 0727 UTC 16 Jan 2018

METAR for:PANC (Anchorage Intl, AK, US)
Text:PANC 160653Z 03004KT 10SM FEW015 BKN065 OVC110 M02/M05 A2949 RMK AO2 SLP989 T10221050
Temperature: -2.2°C ( 28°F)
Dewpoint: -5.0°C ( 23°F) [RH = 81%]
Pressure (altimeter):29.49 inches Hg ( 998.7 mb) [Sea level pressure: 998.9 mb]
Winds:from the NNE (30 degrees) at 5 MPH (4 knots; 2.1 m/s)
Visibility:10 or more sm (16+ km)
Ceiling:6500 feet AGL
Clouds: few clouds at 1500 feet AGL, broken clouds at 6500 feet AGL, overcast cloud deck at 11000 feet AGL
Text:PANC 160553Z 06004KT 10SM FEW012 BKN060 OVC200 M02/M05 A2950 RMK AO2 SLP994 4/006 T10221050 11006 21033 58010
Temperature: -2.2°C ( 28°F)
Dewpoint: -5.0°C ( 23°F) [RH = 81%]
Pressure (altimeter):29.50 inches Hg ( 999.1 mb) [Sea level pressure: 999.4 mb]
Winds:from the ENE (60 degrees) at 5 MPH (4 knots; 2.1 m/s)
Visibility:10 or more sm (16+ km)
Ceiling:6000 feet AGL
Clouds: few clouds at 1200 feet AGL, broken clouds at 6000 feet AGL, overcast cloud deck at 20000 feet AGL
Text:PANC 160453Z 08004KT 10SM FEW015 BKN060 BKN220 M03/M06 A2953 RMK AO2 SLP002 T10281056
Temperature: -2.8°C ( 27°F)
Dewpoint: -5.6°C ( 22°F) [RH = 81%]
Pressure (altimeter):29.53 inches Hg (1000.1 mb) [Sea level pressure: 1000.2 mb]
Winds:from the E (80 degrees) at 5 MPH (4 knots; 2.1 m/s)
Visibility:10 or more sm (16+ km)
Ceiling:6000 feet AGL
Clouds: few clouds at 1500 feet AGL, broken clouds at 6000 feet AGL, broken clouds at 22000 feet AGL
Text:PANC 160417Z 01006KT 10SM SCT024 BKN060 BKN220 M02/M06 A2953 RMK AO2 T10221056
Temperature: -2.2°C ( 28°F)
Dewpoint: -5.6°C ( 22°F) [RH = 77%]
Pressure (altimeter):29.53 inches Hg (1000.1 mb)
Winds:from the N (10 degrees) at 7 MPH (6 knots; 3.1 m/s)
Visibility:10 or more sm (16+ km)
Ceiling:6000 feet AGL
Clouds: scattered clouds at 2400 feet AGL, broken clouds at 6000 feet AGL, broken clouds at 22000 feet AGL
Text:PANC 160400Z 02004KT 10SM BKN022 BKN200 M02/M06 A2953 RMK AO2 T10221061
Temperature: -2.2°C ( 28°F)
Dewpoint: -6.1°C ( 21°F) [RH = 75%]
Pressure (altimeter):29.53 inches Hg (1000.1 mb)
Winds:from the NNE (20 degrees) at 5 MPH (4 knots; 2.1 m/s)
Visibility:10 or more sm (16+ km)
Ceiling:2200 feet AGL
Clouds: broken clouds at 2200 feet AGL, broken clouds at 20000 feet AGL
Text:PANC 160353Z 01004KT 10SM SCT020 BKN200 M02/M06 A2953 RMK AO2 SLP003 CIG LWR NE-E T10221061
Temperature: -2.2°C ( 28°F)
Dewpoint: -6.1°C ( 21°F) [RH = 75%]
Pressure (altimeter):29.53 inches Hg (1000.1 mb) [Sea level pressure: 1000.3 mb]
Winds:from the N (10 degrees) at 5 MPH (4 knots; 2.1 m/s)
Visibility:10 or more sm (16+ km)
Ceiling:20000 feet AGL
Clouds: scattered clouds at 2000 feet AGL, broken clouds at 20000 feet AGL
Text:PANC 160320Z 36009KT 10SM FEW008 SCT015 BKN240 M02/M06 A2954 RMK AO2 T10221056
Temperature: -2.2°C ( 28°F)
Dewpoint: -5.6°C ( 22°F) [RH = 77%]
Pressure (altimeter):29.54 inches Hg (1000.4 mb)
Winds:from the N (360 degrees) at 10 MPH (9 knots; 4.6 m/s)
Visibility:10 or more sm (16+ km)
Ceiling:24000 feet AGL
Clouds: few clouds at 800 feet AGL, scattered clouds at 1500 feet AGL, broken clouds at 24000 feet AGL
Text:PANC 160309Z 34008KT 10SM SCT008 BKN015 OVC055 M03/M06 A2954 RMK AO2 T10331056
Temperature: -3.3°C ( 26°F)
Dewpoint: -5.6°C ( 22°F) [RH = 84%]
Pressure (altimeter):29.54 inches Hg (1000.4 mb)
Winds:from the NNW (340 degrees) at 9 MPH (8 knots; 4.1 m/s)
Visibility:10 or more sm (16+ km)
Ceiling:1500 feet AGL
Clouds: scattered clouds at 800 feet AGL, broken clouds at 1500 feet AGL, overcast cloud deck at 5500 feet AGL
Text:PANC 160253Z 33007KT 10SM SCT005 BKN007 OVC012 M03/M06 A2953 RMK AO2 SLP004 T10331056 53001
Temperature: -3.3°C ( 26°F)
Dewpoint: -5.6°C ( 22°F) [RH = 84%]
Pressure (altimeter):29.53 inches Hg (1000.1 mb) [Sea level pressure: 1000.4 mb]
Winds:from the NNW (330 degrees) at 8 MPH (7 knots; 3.6 m/s)
Visibility:10 or more sm (16+ km)
Ceiling:700 feet AGL
Clouds: scattered clouds at 500 feet AGL, broken clouds at 700 feet AGL, overcast cloud deck at 1200 feet AGL
Text:PANC 160232Z 34007KT 10SM BKN005 BKN055 BKN170 M03/M05 A2953 RMK AO2 T10281050
Temperature: -2.8°C ( 27°F)
Dewpoint: -5.0°C ( 23°F) [RH = 85%]
Pressure (altimeter):29.53 inches Hg (1000.1 mb)
Winds:from the NNW (340 degrees) at 8 MPH (7 knots; 3.6 m/s)
Visibility:10 or more sm (16+ km)
Ceiling:500 feet AGL
Clouds: broken clouds at 500 feet AGL, broken clouds at 5500 feet AGL, broken clouds at 17000 feet AGL
Text:PANC 160218Z 35004KT 10SM FEW005 SCT055 BKN170 M03/M05 A2953 RMK AO2 LOW ST N-NE T10281050
Temperature: -2.8°C ( 27°F)
Dewpoint: -5.0°C ( 23°F) [RH = 85%]
Pressure (altimeter):29.53 inches Hg (1000.1 mb)
Winds:from the N (350 degrees) at 5 MPH (4 knots; 2.1 m/s)
Visibility:10 or more sm (16+ km)
Ceiling:17000 feet AGL
Clouds: few clouds at 500 feet AGL, scattered clouds at 5500 feet AGL, broken clouds at 17000 feet AGL
Text:PANC 160153Z 33005KT 10SM SCT055 BKN170 M02/M04 A2953 RMK AO2 SLP002 T10221044
Temperature: -2.2°C ( 28°F)
Dewpoint: -4.4°C ( 24°F) [RH = 85%]
Pressure (altimeter):29.53 inches Hg (1000.1 mb) [Sea level pressure: 1000.2 mb]
Winds:from the NNW (330 degrees) at 6 MPH (5 knots; 2.6 m/s)
Visibility:10 or more sm (16+ km)
Ceiling:17000 feet AGL
Clouds: scattered clouds at 5500 feet AGL, broken clouds at 17000 feet AGL

TAF for:PANC (Anchorage Intl, AK, US) issued at 0522 UTC 16 Jan 2018
Text:PANC 160522Z 1606/1712 01006KT P6SM VCSH FEW020 BKN060 OVC100
Forecast period:0600 to 1400 UTC 16 January 2018
Forecast type:FROM: standard forecast or significant change
Winds:from the N (10 degrees) at 7 MPH (6 knots; 3.1 m/s)
Visibility:6 or more sm (10+ km)
Ceiling:6000 feet AGL
Clouds: few clouds at 2000 feet AGL, broken clouds at 6000 feet AGL, overcast cloud deck at 10000 feet AGL
Weather:VCSH (showers in vicinity)
Text:FM161400 02009KT P6SM -SHSNRA OVC050
Forecast period:1400 to 1800 UTC 16 January 2018
Forecast type:FROM: standard forecast or significant change
Winds:from the NNE (20 degrees) at 10 MPH (9 knots; 4.6 m/s)
Visibility:6 or more sm (10+ km)
Ceiling:5000 feet AGL
Clouds: overcast cloud deck at 5000 feet AGL
Weather:-SHSN -SHRA (light snow showers, light rain showers)
Text:FM161800 32006KT P6SM SCT050 BKN080
Forecast period:1800 UTC 16 January 2018 to 0000 UTC 17 January 2018
Forecast type:FROM: standard forecast or significant change
Winds:from the NW (320 degrees) at 7 MPH (6 knots; 3.1 m/s)
Visibility:6 or more sm (10+ km)
Ceiling:8000 feet AGL
Clouds: scattered clouds at 5000 feet AGL, broken clouds at 8000 feet AGL
Text:FM170000 36006KT P6SM VCSH SCT040 BKN070
Forecast period:0000 to 1200 UTC 17 January 2018
Forecast type:FROM: standard forecast or significant change
Winds:from the N (360 degrees) at 7 MPH (6 knots; 3.1 m/s)
Visibility:6 or more sm (10+ km)
Ceiling:7000 feet AGL
Clouds: scattered clouds at 4000 feet AGL, broken clouds at 7000 feet AGL
Weather:VCSH (showers in vicinity)